Time;durP1;ratioP1;P1;durP2;ratioP2;P2;SDS_P1;SDS_P2;PMS_P1;PMS_P2;Temp;Humidity;BMP_temperature;BMP_pressure;BME280_temperature;BME280_humidity;BME280_pressure;Samples;Min_cycle;Max_cycle;Signal;HPM_P1;HPM_P2
2023/10/18 04:35:56;;;;;;;20.30;12.40;;;;;;;0.85;69.79;100720.02;106952;1254;64074;-79
2023/10/18 04:38:30;;;;;;;21.90;13.20;;;;;;;0.84;69.81;100718.48;106935;1254;61336;-81
2023/10/18 04:43:28;;;;;;;17.60;11.80;;;;;;;0.85;69.89;100717.42;108402;1253;65715;-78
2023/10/18 04:46:19;;;;;;;23.70;13.10;;;;;;;0.85;69.94;100719.84;107005;1253;61925;-78
2023/10/18 04:51:27;;;;;;;22.30;12.90;;;;;;;0.86;69.91;100729.70;106897;1253;61259;-77
2023/10/18 04:53:57;;;;;;;17.20;12.20;;;;;;;0.86;69.98;100736.63;106921;1254;59795;-77
2023/10/18 04:56:34;;;;;;;19.40;13.00;;;;;;;0.86;70.04;100735.93;106883;1254;65755;-77
2023/10/18 04:59:11;;;;;;;17.40;13.00;;;;;;;0.86;70.07;100731.60;106923;1254;61285;-77
2023/10/18 05:01:56;;;;;;;21.50;13.10;;;;;;;0.88;70.18;100727.92;107403;1254;63744;-77
2023/10/18 05:04:24;;;;;;;19.80;13.20;;;;;;;0.93;70.28;100727.23;106892;1254;61307;-76
2023/10/18 05:06:56;;;;;;;14.20;9.50;;;;;;;0.98;70.49;100732.41;107009;1253;61065;-76
2023/10/18 05:09:34;;;;;;;21.30;12.50;;;;;;;1.02;70.44;100730.55;106957;1254;65714;-78
2023/10/18 05:12:07;;;;;;;20.80;13.40;;;;;;;1.05;70.48;100730.27;106953;1254;60470;-77
2023/10/18 05:14:50;;;;;;;20.70;14.00;;;;;;;1.09;70.57;100732.90;106962;1254;63704;-79
2023/10/18 05:17:26;;;;;;;25.40;16.90;;;;;;;1.15;70.61;100730.08;106897;1252;61334;-80
2023/10/18 05:19:56;;;;;;;21.00;14.70;;;;;;;1.23;70.80;100733.48;106938;1253;59653;-79
2023/10/18 05:22:24;;;;;;;20.10;13.50;;;;;;;1.29;70.76;100733.77;106916;1254;65726;-79
2023/10/18 05:28:02;;;;;;;18.60;12.40;;;;;;;1.40;70.72;100732.51;106929;1254;63756;-80
2023/10/18 05:36:10;;;;;;;17.90;12.70;;;;;;;1.61;70.89;100733.30;106873;1253;65801;-79
2023/10/18 05:43:58;;;;;;;19.50;13.10;;;;;;;1.82;70.84;100730.27;106943;1257;61310;-79
2023/10/18 05:46:34;;;;;;;20.40;12.90;;;;;;;1.85;70.79;100731.70;107018;1254;61283;-79
2023/10/18 05:49:04;;;;;;;20.60;11.70;;;;;;;1.91;70.83;100731.32;106868;1254;64453;-80
2023/10/18 05:51:34;;;;;;;19.40;13.70;;;;;;;1.97;70.81;100726.91;106883;1254;61324;-80
2023/10/18 05:54:06;;;;;;;18.60;13.10;;;;;;;2.03;70.86;100724.77;106912;1254;63784;-79
2023/10/18 05:56:34;;;;;;;18.50;13.90;;;;;;;2.09;70.76;100726.80;106939;1254;61189;-80
2023/10/18 06:02:10;;;;;;;24.00;18.00;;;;;;;2.26;70.81;100726.63;106813;1252;64466;-80
2023/10/18 06:04:38;;;;;;;25.60;17.00;;;;;;;2.37;70.85;100729.34;106924;1254;61192;-79
2023/10/18 06:07:10;;;;;;;23.20;16.30;;;;;;;2.49;70.97;100726.76;106919;1254;62556;-79
2023/10/18 06:09:47;;;;;;;19.90;13.30;;;;;;;2.62;70.96;100726.77;107046;1254;61323;-78
2023/10/18 06:12:21;;;;;;;16.80;12.00;;;;;;;2.74;70.88;100727.83;107007;1253;59304;-79
2023/10/18 06:14:52;;;;;;;18.10;12.00;;;;;;;2.83;70.82;100728.66;106995;1253;67841;-78
2023/10/18 06:18:09;;;;;;;17.10;11.80;;;;;;;2.94;70.79;100726.31;107238;1252;59723;-80
2023/10/18 06:20:15;;;;;;;16.70;10.90;;;;;;;3.05;70.75;100727.03;107061;1254;62454;-79
2023/10/18 06:22:47;;;;;;;16.40;11.40;;;;;;;3.17;70.73;100727.92;106780;1253;61209;-79
2023/10/18 06:25:25;;;;;;;15.70;11.10;;;;;;;3.28;70.72;100724.84;107027;1254;61264;-78
2023/10/18 06:27:53;;;;;;;16.90;11.30;;;;;;;3.40;70.72;100719.41;107177;1253;64461;-80
2023/10/18 06:30:24;;;;;;;16.40;12.00;;;;;;;3.54;70.65;100721.92;107091;1254;61254;-79
2023/10/18 06:32:52;;;;;;;16.50;11.70;;;;;;;3.66;70.55;100725.75;106986;1254;62757;-78
2023/10/18 06:35:26;;;;;;;18.50;11.60;;;;;;;3.76;70.44;100723.71;106930;1254;61191;-78
2023/10/18 06:37:54;;;;;;;16.30;11.60;;;;;;;3.87;70.21;100721.69;106966;1254;59468;-79
2023/10/18 06:40:44;;;;;;;17.30;11.90;;;;;;;3.95;70.23;100724.56;107033;1252;64485;-79
2023/10/18 06:43:29;;;;;;;17.90;11.40;;;;;;;4.07;70.02;100726.47;106970;1252;60420;-79
2023/10/18 06:45:57;;;;;;;15.00;10.30;;;;;;;4.16;69.82;100725.88;106971;1254;62543;-79
2023/10/18 06:48:30;;;;;;;19.10;11.50;;;;;;;4.23;69.62;100723.95;106966;1254;61342;-80
2023/10/18 06:50:59;;;;;;;16.50;11.10;;;;;;;4.30;69.38;100722.92;106984;1252;59282;-78
2023/10/18 06:53:27;;;;;;;15.80;12.00;;;;;;;4.38;69.28;100719.45;107054;1259;67735;-77
2023/10/18 06:56:06;;;;;;;13.80;9.80;;;;;;;4.47;69.33;100713.20;106946;1253;61196;-79
2023/10/18 07:01:17;;;;;;;13.80;9.60;;;;;;;4.76;69.01;100707.59;106971;1254;59642;-78
2023/10/18 07:03:48;;;;;;;15.60;10.40;;;;;;;4.92;68.97;100706.25;106975;1254;62246;-79
2023/10/18 07:06:18;;;;;;;16.30;10.20;;;;;;;5.08;68.84;100701.60;106995;1254;64541;-74
2023/10/18 07:08:49;;;;;;;15.50;10.40;;;;;;;5.25;68.46;100699.16;106950;1254;61279;-75
2023/10/18 07:11:18;;;;;;;16.10;10.40;;;;;;;5.40;68.27;100696.79;107063;1252;62469;-80
2023/10/18 07:14:04;;;;;;;14.80;9.90;;;;;;;5.57;68.04;100694.14;107354;1253;61199;-80
2023/10/18 07:21:46;;;;;;;14.50;9.60;;;;;;;5.96;66.98;100685.59;107052;1259;61123;-80
2023/10/18 07:24:17;;;;;;;16.90;9.90;;;;;;;6.03;66.36;100684.13;107250;1253;63730;-80
2023/10/18 07:26:46;;;;;;;13.70;10.20;;;;;;;6.12;66.28;100682.23;107177;1252;60461;-81
2023/10/18 07:29:14;;;;;;;12.00;8.80;;;;;;;6.23;66.16;100684.57;107134;1254;59134;-79
2023/10/18 07:31:45;;;;;;;12.70;9.00;;;;;;;6.38;65.89;100684.44;107085;1254;65668;-74
2023/10/18 07:34:25;;;;;;;12.60;8.70;;;;;;;6.52;65.63;100685.02;108041;1254;59200;-75
2023/10/18 07:36:54;;;;;;;12.20;9.50;;;;;;;6.66;65.09;100680.16;107044;1257;63763;-76
2023/10/18 07:39:25;;;;;;;16.30;9.80;;;;;;;6.80;64.78;100677.44;107071;1254;61355;-77
2023/10/18 07:41:53;;;;;;;15.30;9.50;;;;;;;6.95;64.60;100672.02;106940;1252;61237;-77
2023/10/18 07:44:21;;;;;;;16.00;8.80;;;;;;;7.11;64.35;100674.02;106946;1254;65701;-77
2023/10/18 07:46:48;;;;;;;14.00;9.00;;;;;;;7.23;63.86;100667.65;107056;1254;61158;-77
2023/10/18 07:49:16;;;;;;;12.80;9.30;;;;;;;7.36;63.56;100669.17;107171;1254;62577;-77
2023/10/18 07:51:55;;;;;;;13.00;8.60;;;;;;;7.47;63.15;100666.37;107300;1252;61176;-78
2023/10/18 07:54:24;;;;;;;11.80;8.80;;;;;;;7.59;62.91;100663.33;107197;1252;61264;-78
2023/10/18 07:56:54;;;;;;;12.00;8.50;;;;;;;7.73;62.61;100665.80;106957;1253;64452;-78
2023/10/18 07:59:28;;;;;;;10.50;7.90;;;;;;;7.87;62.46;100664.76;106951;1253;60131;-78
2023/10/18 08:02:09;;;;;;;13.30;8.30;;;;;;;8.03;62.20;100660.89;107050;1253;65988;-77
2023/10/18 08:04:38;;;;;;;12.30;8.00;;;;;;;8.20;61.79;100658.59;106906;1254;61282;-77
2023/10/18 08:07:15;;;;;;;10.00;6.40;;;;;;;8.36;61.42;100655.45;106973;1253;61051;-76
2023/10/18 08:09:43;;;;;;;9.30;5.80;;;;;;;8.56;60.25;100653.94;106810;1254;76835;-74
2023/10/18 08:14:57;;;;;;;7.90;5.00;;;;;;;8.83;58.49;100645.09;106931;1254;63686;-75
2023/10/18 08:17:44;;;;;;;6.60;4.50;;;;;;;9.01;58.02;100643.02;106930;1253;61381;-75
2023/10/18 08:22:53;;;;;;;6.00;4.30;;;;;;;9.33;56.67;100637.60;106918;1252;64644;-74
2023/10/18 08:25:31;;;;;;;7.40;3.80;;;;;;;9.48;56.28;100628.83;106947;1254;61327;-76
2023/10/18 08:28:01;;;;;;;7.50;3.90;;;;;;;9.64;55.59;100627.67;106918;1254;65551;-75
2023/10/18 08:33:12;;;;;;;5.40;3.10;;;;;;;9.87;53.48;100621.29;106867;1254;61330;-79
2023/10/18 08:35:39;;;;;;;4.90;3.30;;;;;;;9.96;53.66;100620.98;106880;1253;66067;-79
2023/10/18 08:38:07;;;;;;;4.50;2.90;;;;;;;10.07;53.10;100620.36;106884;1254;60114;-80
2023/10/18 08:43:44;;;;;;;5.30;3.10;;;;;;;10.25;51.14;100620.40;106946;1253;61401;-80
2023/10/18 08:46:12;;;;;;;5.50;2.70;;;;;;;10.30;50.50;100610.58;107005;1252;61283;-80
2023/10/18 08:48:40;;;;;;;4.60;2.90;;;;;;;10.39;50.86;100613.98;106813;1254;68482;-79
2023/10/18 08:51:08;;;;;;;5.30;2.90;;;;;;;10.52;50.98;100614.70;107057;1253;61232;-83
2023/10/18 08:53:41;;;;;;;4.20;2.70;;;;;;;10.67;50.07;100610.79;109113;1252;62663;-82
2023/10/18 08:56:08;;;;;;;7.30;3.00;;;;;;;10.78;49.78;100606.06;106978;1253;162716;-83
2023/10/18 08:58:39;;;;;;;4.50;2.40;;;;;;;10.86;49.36;100602.75;107085;1253;61256;-83
2023/10/18 09:01:09;;;;;;;5.50;2.40;;;;;;;10.94;48.19;100605.88;107010;1254;76955;-82
2023/10/18 09:03:37;;;;;;;3.70;2.40;;;;;;;10.95;47.62;100600.85;107082;1254;68966;-84
2023/10/18 09:06:05;;;;;;;4.90;2.50;;;;;;;10.97;47.80;100594.16;107058;1253;63746;-83
2023/10/18 09:08:35;;;;;;;3.70;2.10;;;;;;;11.10;48.07;100587.68;106967;1254;61364;-83
2023/10/18 09:11:05;;;;;;;3.60;2.30;;;;;;;11.24;47.14;100578.45;106969;1252;59323;-79
2023/10/18 09:13:33;;;;;;;4.00;2.40;;;;;;;11.35;46.54;100577.99;106874;1254;67376;-77
2023/10/18 09:16:04;;;;;;;4.10;2.40;;;;;;;11.42;46.88;100570.33;106870;1254;69235;-78
2023/10/18 09:18:32;;;;;;;3.60;2.00;;;;;;;11.55;46.74;100571.45;106937;1254;63898;-78
2023/10/18 09:23:43;;;;;;;5.90;2.30;;;;;;;11.78;45.53;100562.73;106919;1253;61209;-79
2023/10/18 09:26:12;;;;;;;3.90;2.20;;;;;;;11.84;45.20;100556.39;106895;1253;75578;-78
2023/10/18 09:28:44;;;;;;;3.50;2.30;;;;;;;11.90;44.65;100548.98;106954;1253;61290;-79
2023/10/18 09:31:18;;;;;;;4.90;2.20;;;;;;;12.00;44.74;100548.15;107205;1254;63783;-77
2023/10/18 09:33:51;;;;;;;4.00;2.00;;;;;;;12.12;44.52;100540.11;107202;1256;61386;-79
2023/10/18 09:36:20;;;;;;;3.70;1.90;;;;;;;12.26;43.61;100540.58;108541;1252;59504;-76
2023/10/18 09:38:56;;;;;;;5.20;2.30;;;;;;;12.39;43.16;100529.58;109470;1258;64858;-77
2023/10/18 09:41:30;;;;;;;4.30;2.40;;;;;;;12.48;42.62;100528.07;107073;1253;61205;-78
2023/10/18 09:44:00;;;;;;;3.10;2.00;;;;;;;12.53;42.56;100523.09;107046;1253;66066;-77
2023/10/18 09:46:29;;;;;;;3.60;1.70;;;;;;;12.60;42.92;100515.92;107009;1254;62170;-77
2023/10/18 09:48:58;;;;;;;3.60;2.20;;;;;;;12.72;42.50;100520.39;106932;1254;62263;-79
2023/10/18 09:51:26;;;;;;;3.70;1.80;;;;;;;12.76;41.82;100508.53;107041;1253;65755;-77
2023/10/18 09:53:54;;;;;;;3.70;1.90;;;;;;;12.75;41.66;100500.89;106948;1254;61250;-76
2023/10/18 09:56:35;;;;;;;4.20;2.00;;;;;;;12.81;41.82;100501.41;106901;1254;62563;-76
2023/10/18 09:59:08;;;;;;;3.30;2.00;;;;;;;12.91;41.62;100493.30;106922;1253;62337;-75
2023/10/18 10:04:14;;;;;;;4.50;2.20;;;;;;;13.19;41.31;100489.30;107070;1254;64433;-81
2023/10/18 10:09:38;;;;;;;4.40;2.50;;;;;;;13.38;41.15;100488.44;106789;1254;63857;-78
2023/10/18 10:12:11;;;;;;;3.10;2.00;;;;;;;13.50;40.34;100486.34;106986;1253;62272;-79
2023/10/18 10:14:38;;;;;;;4.50;1.70;;;;;;;13.58;40.74;100480.80;106937;1253;61314;-76
2023/10/18 10:17:15;;;;;;;3.00;2.00;;;;;;;13.73;40.71;100474.53;106904;1252;64564;-79
2023/10/18 10:19:52;;;;;;;3.20;2.30;;;;;;;13.86;39.76;100475.42;106943;1257;68115;-74
2023/10/18 10:22:24;;;;;;;2.60;1.80;;;;;;;13.91;39.95;100469.45;107001;1253;72650;-77
2023/10/18 10:25:05;;;;;;;3.80;2.20;;;;;;;13.94;39.28;100467.59;107001;1254;62307;-78
2023/10/18 10:27:53;;;;;;;4.80;2.30;;;;;;;13.89;39.20;100459.57;106939;1252;61382;-77
2023/10/18 10:33:02;;;;;;;5.60;1.90;;;;;;;13.87;39.23;100448.27;106966;1254;61215;-75
2023/10/18 10:35:32;;;;;;;6.10;2.70;;;;;;;13.88;39.60;100451.48;106937;1253;66027;-75
2023/10/18 10:38:13;;;;;;;3.80;2.40;;;;;;;13.99;39.62;100447.29;106909;1254;61202;-75
2023/10/18 10:40:48;;;;;;;4.20;2.60;;;;;;;14.14;38.91;100449.67;106941;1252;61253;-75
2023/10/18 10:43:19;;;;;;;;;;;;;;;14.18;38.25;100445.38;106959;1253;64496;-75
2023/10/18 10:48:15;;;;;;;4.00;2.70;;;;;;;14.34;38.36;100446.91;106985;1253;74817;-76
2023/10/18 10:50:53;;;;;;;5.70;2.70;;;;;;;14.49;37.64;100438.03;107074;1259;61419;-75
2023/10/18 10:53:30;;;;;;;3.70;2.40;;;;;;;14.55;37.77;100435.19;107066;1253;61352;-78
2023/10/18 10:56:26;;;;;;;3.50;2.50;;;;;;;14.66;37.62;100440.48;107130;1252;65836;-77
2023/10/18 10:59:03;;;;;;;5.50;2.70;;;;;;;14.67;37.39;100439.73;107105;1254;61298;-78
2023/10/18 11:01:44;;;;;;;5.00;2.30;;;;;;;14.64;37.33;100437.33;107069;1254;62531;-77
2023/10/18 11:04:14;;;;;;;5.80;3.00;;;;;;;14.53;37.05;100436.20;107247;1254;61352;-78
2023/10/18 11:06:43;;;;;;;6.60;3.30;;;;;;;14.27;37.31;100435.50;107026;1254;60865;-77
2023/10/18 11:09:17;;;;;;;10.60;3.50;;;;;;;13.97;37.78;100435.08;106974;1254;65748;-77
2023/10/18 11:11:47;;;;;;;6.80;3.40;;;;;;;13.70;38.18;100434.38;106955;1254;61170;-78
2023/10/18 11:14:18;;;;;;;5.30;3.30;;;;;;;13.47;38.30;100433.48;106723;1259;66168;-78
2023/10/18 11:16:53;;;;;;;15.00;4.10;;;;;;;13.24;39.03;100431.70;106844;1256;61228;-76
2023/10/18 11:19:28;;;;;;;7.50;3.90;;;;;;;13.10;38.94;100426.07;106830;1253;61209;-78
2023/10/18 11:21:58;;;;;;;8.40;4.20;;;;;;;12.99;39.12;100420.96;106825;1253;64439;-79
2023/10/18 11:24:27;;;;;;;6.80;3.60;;;;;;;13.01;39.18;100416.63;106872;1253;59578;-80
2023/10/18 11:26:57;;;;;;;6.00;3.10;;;;;;;13.05;39.05;100416.04;107070;1259;62472;-77
2023/10/18 11:29:28;;;;;;;6.00;2.60;;;;;;;13.05;39.08;100415.14;107892;1253;59486;-77
2023/10/18 11:31:59;;;;;;;7.60;2.70;;;;;;;13.01;39.21;100410.96;107455;1253;60224;-80
2023/10/18 11:34:27;;;;;;;7.80;2.80;;;;;;;13.07;39.28;100410.88;107055;1255;75975;-79
2023/10/18 11:37:01;;;;;;;5.60;2.50;;;;;;;13.30;39.42;100404.82;108042;1253;61282;-79
2023/10/18 11:39:34;;;;;;;5.20;2.60;;;;;;;13.56;38.76;100402.12;106940;1257;63851;-76
2023/10/18 11:42:02;;;;;;;5.60;2.70;;;;;;;13.67;38.29;100403.14;107043;1255;61272;-79
2023/10/18 11:44:34;;;;;;;3.50;2.20;;;;;;;13.63;37.89;100403.40;108312;1252;59566;-76
2023/10/18 11:47:12;;;;;;;8.50;3.00;;;;;;;13.45;38.30;100396.75;106863;1254;64504;-77
2023/10/18 11:49:41;;;;;;;5.20;2.70;;;;;;;13.42;38.96;100393.15;106947;1254;61155;-79
2023/10/18 11:52:22;;;;;;;6.20;2.50;;;;;;;13.58;38.84;100386.70;106890;1254;63919;-80
2023/10/18 11:54:53;;;;;;;6.60;2.80;;;;;;;13.86;38.07;100387.45;106888;1254;61270;-79
2023/10/18 11:57:30;;;;;;;5.40;2.80;;;;;;;14.00;37.74;100379.20;106923;1254;61356;-78
2023/10/18 12:00:47;;;;;;;5.60;2.90;;;;;;;13.99;37.73;100378.45;106930;1253;64449;-79
2023/10/18 12:02:46;;;;;;;6.70;2.80;;;;;;;13.90;37.84;100378.25;106816;1252;61279;-78
2023/10/18 12:05:23;;;;;;;10.00;3.00;;;;;;;13.78;37.68;100374.21;106890;1252;62751;-77
2023/10/18 12:07:53;;;;;;;6.30;3.40;;;;;;;13.73;38.17;100369.56;106927;1253;61378;-77
2023/10/18 12:10:56;;;;;;;6.60;3.70;;;;;;;13.83;38.54;100364.04;106889;1252;59322;-78
2023/10/18 12:13:17;;;;;;;6.40;3.40;;;;;;;14.05;38.83;100357.48;106885;1254;65721;-78
2023/10/18 12:15:44;;;;;;;7.30;3.10;;;;;;;14.35;39.11;100353.41;106862;1254;61378;-79
2023/10/18 12:18:14;;;;;;;7.40;3.10;;;;;;;14.73;38.23;100355.66;106861;1256;66094;-80
2023/10/18 12:20:45;;;;;;;6.00;2.80;;;;;;;15.03;37.35;100350.20;107034;1259;61351;-78
2023/10/18 12:23:17;;;;;;;6.80;2.80;;;;;;;15.21;36.52;100345.05;106905;1253;61142;-77
2023/10/18 12:25:46;;;;;;;6.30;2.90;;;;;;;15.33;36.27;100334.78;106720;1254;64610;-76
2023/10/18 12:28:37;;;;;;;6.40;2.60;;;;;;;15.42;36.25;100335.06;106931;1254;61416;-76
2023/10/18 12:31:12;;;;;;;7.60;2.80;;;;;;;15.50;35.82;100334.55;106862;1254;62450;-74
2023/10/18 12:33:48;;;;;;;3.90;2.50;;;;;;;15.43;35.29;100338.61;106853;1254;59537;-75
2023/10/18 12:36:23;;;;;;;7.00;2.50;;;;;;;15.16;35.66;100343.21;106880;1254;61173;-75
2023/10/18 12:38:55;;;;;;;5.30;2.30;;;;;;;14.92;36.08;100340.47;106733;1253;67758;-79
2023/10/18 12:41:31;;;;;;;6.00;2.80;;;;;;;14.66;36.37;100341.05;106934;1254;66684;-80
2023/10/18 12:43:59;;;;;;;5.50;2.70;;;;;;;14.37;36.69;100338.89;106886;1254;73901;-76
2023/10/18 12:46:27;;;;;;;7.20;2.90;;;;;;;14.16;37.02;100337.05;106896;1254;61196;-76
2023/10/18 12:48:56;;;;;;;9.10;3.10;;;;;;;13.98;37.40;100334.45;106874;1253;61244;-76
2023/10/18 12:51:40;;;;;;;7.30;2.90;;;;;;;13.80;37.92;100330.27;106940;1254;65696;-77
2023/10/18 12:54:19;;;;;;;5.10;2.90;;;;;;;13.68;38.37;100327.14;106932;1254;69170;-77
2023/10/18 12:57:49;;;;;;;5.20;2.60;;;;;;;13.68;38.70;100326.60;106991;1254;62486;-77
2023/10/18 13:05:40;;;;;;;5.00;2.60;;;;;;;13.55;38.57;100309.13;106904;1252;67186;-75
2023/10/18 13:08:22;;;;;;;5.60;2.70;;;;;;;13.45;38.80;100308.27;106933;1259;61506;-78
2023/10/18 13:11:44;;;;;;;8.00;3.30;;;;;;;13.40;39.16;100301.83;106906;1253;66111;-78
2023/10/18 13:13:45;;;;;;;6.40;2.80;;;;;;;13.39;39.66;100296.08;107122;1252;59565;-78
2023/10/18 13:16:15;;;;;;;7.40;3.40;;;;;;;13.40;39.76;100293.33;106989;1254;59266;-78
2023/10/18 13:18:43;;;;;;;5.50;2.50;;;;;;;13.39;39.60;100287.58;107017;1252;75690;-78
2023/10/18 13:21:11;;;;;;;5.00;2.70;;;;;;;13.36;39.65;100287.15;107018;1254;61355;-78
2023/10/18 13:23:44;;;;;;;6.60;2.60;;;;;;;13.35;39.96;100285.20;107033;1253;63943;-78
2023/10/18 13:26:18;;;;;;;8.50;2.70;;;;;;;13.32;39.91;100282.27;106982;1253;61256;-78
2023/10/18 13:28:51;;;;;;;5.20;2.80;;;;;;;13.29;39.89;100279.72;106886;1253;61199;-78
2023/10/18 13:31:30;;;;;;;6.00;2.90;;;;;;;13.26;39.64;100279.45;106949;1252;67374;-78
2023/10/18 13:33:59;;;;;;;5.20;2.70;;;;;;;13.19;39.58;100277.05;106840;1253;66648;-79
2023/10/18 13:36:27;;;;;;;4.60;3.00;;;;;;;13.14;40.04;100278.40;106999;1258;64872;-84
2023/10/18 13:38:54;;;;;;;8.20;3.10;;;;;;;13.09;40.32;100275.46;106736;1254;61305;-76
2023/10/18 13:41:22;;;;;;;5.50;2.80;;;;;;;13.07;40.37;100271.40;106916;1254;61399;-78
2023/10/18 13:48:25;;;;;;;4.60;2.40;;;;;;;13.00;40.95;100264.70;106922;1254;61348;-77
2023/10/18 13:50:58;;;;;;;4.20;2.40;;;;;;;12.92;41.02;100259.90;106845;1253;74813;-77
2023/10/18 13:53:26;;;;;;;;;;;;;;;12.85;41.30;100262.33;107245;1254;61266;-78
2023/10/18 13:55:58;;;;;;;4.60;2.90;;;;;;;12.76;41.73;100259.25;107098;1254;61169;-79
2023/10/18 13:58:29;;;;;;;6.30;3.00;;;;;;;12.69;41.88;100255.13;106984;1252;64698;-78
2023/10/18 14:00:58;;;;;;;6.20;3.10;;;;;;;12.66;41.99;100251.30;107305;1252;61144;-78
2023/10/18 14:03:27;;;;;;;5.30;3.00;;;;;;;12.63;42.18;100247.88;106973;1254;65752;-78
2023/10/18 14:05:55;;;;;;;9.20;3.20;;;;;;;12.58;41.85;100247.83;107392;1254;61349;-78
2023/10/18 14:08:24;;;;;;;5.90;2.90;;;;;;;12.53;41.94;100242.79;107097;1254;61240;-79
2023/10/18 14:10:55;;;;;;;6.00;2.90;;;;;;;12.48;42.05;100242.89;106882;1253;68185;-79
2023/10/18 14:13:23;;;;;;;5.40;2.80;;;;;;;12.44;42.13;100238.98;107004;1260;61250;-78
2023/10/18 14:15:51;;;;;;;8.30;3.30;;;;;;;12.39;42.23;100237.38;107029;1254;65901;-79
2023/10/18 14:18:19;;;;;;;7.40;4.10;;;;;;;12.32;42.31;100230.50;106997;1254;61147;-79
2023/10/18 14:20:53;;;;;;;8.00;4.10;;;;;;;12.27;42.52;100230.77;107012;1254;61096;-78
2023/10/18 14:23:27;;;;;;;6.20;3.70;;;;;;;12.22;42.89;100228.72;107744;1252;65726;-78
2023/10/18 14:25:55;;;;;;;8.60;3.20;;;;;;;12.17;43.08;100228.18;107690;1254;61152;-76
2023/10/18 14:28:23;;;;;;;5.10;2.90;;;;;;;12.12;43.28;100227.77;106930;1254;74932;-78
2023/10/18 14:30:53;;;;;;;5.90;3.20;;;;;;;12.05;43.43;100222.82;106879;1254;61279;-78
2023/10/18 14:33:21;;;;;;;4.20;3.10;;;;;;;11.97;43.77;100228.34;106929;1254;61117;-78
2023/10/18 14:36:13;;;;;;;5.70;3.50;;;;;;;11.91;44.07;100230.80;106748;1254;66223;-78
2023/10/18 14:38:41;;;;;;;7.30;3.80;;;;;;;11.82;44.37;100228.42;106866;1259;67649;-78
2023/10/18 14:41:17;;;;;;;5.60;3.60;;;;;;;11.75;44.45;100227.24;106781;1257;63819;-78
2023/10/18 14:43:59;;;;;;;5.90;3.70;;;;;;;11.68;44.70;100225.52;106804;1255;61253;-78
2023/10/18 14:46:29;;;;;;;9.10;4.60;;;;;;;11.62;45.07;100222.18;106898;1253;61182;-78
2023/10/18 14:48:59;;;;;;;7.00;4.60;;;;;;;11.56;45.27;100215.44;106876;1253;68003;-78
2023/10/18 14:51:28;;;;;;;6.80;4.10;;;;;;;11.50;45.66;100217.03;106740;1254;69218;-78
2023/10/18 14:53:57;;;;;;;7.60;4.20;;;;;;;11.44;45.88;100215.77;106847;1259;62514;-79
2023/10/18 14:56:24;;;;;;;8.10;3.70;;;;;;;11.38;46.06;100212.97;106891;1253;60538;-80
2023/10/18 14:58:56;;;;;;;6.80;3.40;;;;;;;11.32;46.25;100214.02;106838;1252;59679;-77
2023/10/18 15:01:25;;;;;;;8.60;3.80;;;;;;;11.25;46.44;100215.13;106942;1254;65673;-79
2023/10/18 15:03:53;;;;;;;24.40;14.50;;;;;;;11.17;46.79;100215.23;106812;1254;69144;-79
2023/10/18 15:06:21;;;;;;;15.10;10.80;;;;;;;11.12;46.95;100215.52;106941;1253;66307;-79
2023/10/18 15:08:54;;;;;;;8.80;4.70;;;;;;;11.06;47.04;100217.98;108758;1256;59641;-80
2023/10/18 15:11:23;;;;;;;6.40;3.90;;;;;;;10.99;47.29;100218.38;108049;1254;61333;-78
2023/10/18 15:13:50;;;;;;;5.70;3.80;;;;;;;10.93;47.48;100216.06;107189;1253;76909;-76
2023/10/18 15:16:18;;;;;;;6.70;3.30;;;;;;;10.89;47.57;100215.66;106942;1252;59573;-77
2023/10/18 15:18:46;;;;;;;10.10;3.10;;;;;;;10.84;47.76;100219.77;106884;1259;62604;-77
2023/10/18 15:21:15;;;;;;;6.70;3.80;;;;;;;10.79;47.96;100218.95;106840;1253;62245;-77
2023/10/18 15:23:43;;;;;;;9.00;5.60;;;;;;;10.76;48.15;100216.29;106896;1253;61520;-79
2023/10/18 15:26:16;;;;;;;26.20;16.20;;;;;;;10.70;48.27;100215.90;106852;1253;65852;-78
2023/10/18 15:28:45;;;;;;;28.40;17.30;;;;;;;10.65;48.52;100213.69;106930;1254;61362;-78
2023/10/18 15:31:17;;;;;;;16.20;10.80;;;;;;;10.60;48.68;100210.39;106962;1253;63858;-79
2023/10/18 15:33:45;;;;;;;10.70;7.30;;;;;;;10.55;48.78;100210.91;106982;1254;61244;-77
2023/10/18 15:36:17;;;;;;;10.40;6.00;;;;;;;10.50;48.96;100209.77;106999;1254;61178;-77
2023/10/18 15:38:48;;;;;;;8.10;5.20;;;;;;;10.45;49.16;100210.58;106965;1254;66834;-77
2023/10/18 15:41:19;;;;;;;10.70;4.60;;;;;;;10.41;49.30;100209.45;107009;1253;61403;-78
2023/10/18 15:48:19;;;;;;;9.30;6.10;;;;;;;10.28;49.62;100214.41;106986;1254;61113;-76
2023/10/18 15:50:46;;;;;;;11.30;5.60;;;;;;;10.22;49.77;100213.91;106908;1259;61187;-78
2023/10/18 15:53:14;;;;;;;11.00;5.70;;;;;;;10.19;49.89;100213.11;106988;1258;64963;-77
2023/10/18 15:55:41;;;;;;;8.00;4.60;;;;;;;10.14;50.10;100208.23;106935;1253;61183;-80
2023/10/18 15:58:10;;;;;;;16.40;10.30;;;;;;;10.09;50.35;100210.95;107028;1254;62478;-75
2023/10/18 16:00:38;;;;;;;26.50;18.10;;;;;;;10.04;50.60;100207.83;107019;1254;59671;-75
2023/10/18 16:03:05;;;;;;;49.10;37.00;;;;;;;10.00;50.82;100202.48;107016;1253;59298;-75
2023/10/18 16:05:35;;;;;;;28.90;22.20;;;;;;;9.95;51.12;100202.89;106964;1254;66806;-72
2023/10/18 16:08:04;;;;;;;16.70;10.40;;;;;;;9.89;51.11;100203.91;106814;1254;69972;-72
2023/10/18 16:10:32;;;;;;;12.90;7.70;;;;;;;9.86;51.19;100197.70;106989;1255;74793;-72
2023/10/18 16:12:59;;;;;;;11.60;6.10;;;;;;;9.83;51.16;100195.13;106944;1257;61177;-69
2023/10/18 16:15:34;;;;;;;12.90;6.70;;;;;;;9.80;51.35;100190.77;107138;1258;61358;-72
2023/10/18 16:18:03;;;;;;;9.70;6.30;;;;;;;9.75;51.65;100186.02;107104;1254;65793;-71
2023/10/18 16:20:31;;;;;;;20.10;6.50;;;;;;;9.67;52.24;100187.54;107023;1254;61164;-71
2023/10/18 16:23:03;;;;;;;11.30;6.40;;;;;;;9.58;52.77;100186.90;107119;1258;64830;-74
2023/10/18 16:25:32;;;;;;;9.70;6.00;;;;;;;9.47;53.22;100183.35;107092;1254;62068;-73
2023/10/18 16:28:00;;;;;;;39.30;23.30;;;;;;;9.37;53.65;100180.92;106998;1253;61234;-73
2023/10/18 16:30:28;;;;;;;120.20;66.20;;;;;;;9.31;53.84;100183.00;106997;1253;76902;-74
2023/10/18 16:32:56;;;;;;;75.60;41.20;;;;;;;9.28;53.94;100178.84;107067;1253;59759;-74
2023/10/18 16:35:24;;;;;;;37.70;22.20;;;;;;;9.27;54.11;100179.81;107052;1259;64845;-74
2023/10/18 16:37:51;;;;;;;22.60;12.60;;;;;;;9.24;54.56;100181.62;107049;1253;61260;-74
2023/10/18 16:40:19;;;;;;;16.20;10.30;;;;;;;9.19;54.90;100180.42;107030;1254;62569;-74
2023/10/18 16:42:47;;;;;;;16.60;9.60;;;;;;;9.13;55.16;100176.48;107039;1258;67907;-74
2023/10/18 16:45:16;;;;;;;14.90;9.40;;;;;;;9.09;55.46;100171.87;107069;1253;65781;-74
2023/10/18 16:47:43;;;;;;;13.50;7.90;;;;;;;9.06;55.75;100169.08;106989;1254;74698;-74
2023/10/18 16:50:14;;;;;;;13.50;7.60;;;;;;;9.03;56.01;100169.73;106970;1254;63047;-75
2023/10/18 16:52:43;;;;;;;16.90;8.00;;;;;;;8.98;56.22;100166.54;107065;1254;59596;-73
2023/10/18 16:55:11;;;;;;;16.30;9.90;;;;;;;8.94;56.50;100163.31;106980;1253;64887;-74
2023/10/18 16:57:39;;;;;;;15.60;8.40;;;;;;;8.90;56.63;100161.52;107025;1254;59177;-72
2023/10/18 17:00:16;;;;;;;20.60;10.20;;;;;;;8.86;56.79;100158.29;107879;1254;73590;-74
2023/10/18 17:02:45;;;;;;;19.80;11.40;;;;;;;8.86;56.66;100157.95;108805;1258;59224;-74
2023/10/18 17:05:13;;;;;;;24.60;11.40;;;;;;;8.87;56.52;100150.52;108769;1254;61153;-75
2023/10/18 17:07:44;;;;;;;16.70;10.40;;;;;;;8.89;56.48;100149.48;108812;1257;76541;-74
2023/10/18 17:10:17;;;;;;;16.30;9.60;;;;;;;8.92;56.18;100144.23;108831;1254;67881;-75
2023/10/18 17:12:45;;;;;;;19.20;9.10;;;;;;;8.95;55.79;100144.16;108624;1254;64575;-75
2023/10/18 17:15:16;;;;;;;18.50;9.00;;;;;;;9.00;55.51;100145.38;108580;1253;59102;-75
2023/10/18 17:17:45;;;;;;;17.50;9.30;;;;;;;9.06;55.21;100141.16;108662;1253;60068;-74
2023/10/18 17:20:15;;;;;;;17.80;8.70;;;;;;;9.11;55.08;100139.73;108477;1254;66607;-75